Have a Safe July 4th! 

Flight Track Log - Related Links

Times and Time Zones

All times are in EDT time to prevent confusion due to time zone crossing. See the UAL5911 flight status page for this flight to view local times or setup timezone preferences in your user account.

Time Position Orientation Groundspeed Altitude Reporting Facility
EDT Latitude Longitude Course Direction KTS MPH feet Rate Location/Type
Wed 03:40:53 PM 40.7331 -89.7381 357° North 220 253 4,700  Level Chicago Center
Wed 03:41:55 PM 40.7972 -89.7158 15° North 237 273 7,200 2,468 Climbing Chicago Center
Wed 03:42:57 PM 40.8664 -89.6914 15° North 251 289 9,800 1,887 Climbing Chicago Center
Wed 03:43:00 PM 40.9114 -89.6333 North  Level FlightAware Approximate
Wed 03:43:59 PM 40.9428 -89.6650 15° North 274 315 11,100  Level Chicago Center
Wed 03:44:00 PM 40.9766 -89.6183 11° North  Level FlightAware Approximate
Wed 03:45:00 PM 41.0487 -89.6000 North  Level FlightAware Approximate
Wed 03:45:01 PM 41.0431 -89.5886 30° Northeast 349 402 11,100  Level Chicago Center
Wed 03:46:03 PM 41.1047 -89.4756 54° Northeast 373 429 11,100  Level Chicago Center
Wed 03:47:05 PM 41.1647 -89.3625 55° Northeast 374 430 11,100  Level Chicago Center
Wed 03:49:08 PM 41.2822 -89.1417 55° Northeast 374 430 11,100  Level Chicago Center
Wed 03:50:10 PM 41.3547 -89.0067 54° Northeast 373 429 11,100  Level Chicago Center
Wed 03:51:12 PM 41.4139 -88.8928 55° Northeast 373 429 11,100 -48 Level Chicago Center
Wed 03:52:14 PM 41.4758 -88.7764 55° Northeast 382 440 11,000 -48 Descending Chicago Center
Wed 03:53:16 PM 41.5306 -88.6608 58° Northeast 372 428 11,000  Level Chicago Center
Wed 03:54:18 PM 41.5803 -88.5475 60° Northeast 356 410 11,000 -290 Level Chicago Center
Wed 03:55:20 PM 41.6458 -88.4469 49° Northeast 356 410 10,400 -484 Descending Chicago Center
Wed 03:56:22 PM 41.7108 -88.3186 56° Northeast 348 400 10,000 -194 Descending Chicago Center
Wed 03:57:24 PM 41.7669 -88.2083 56° Northeast 354 407 10,000 -532 Level Chicago Center
Wed 03:58:26 PM 41.8122 -88.1164 57° Northeast 296 341 8,900 -1,258 Descending Chicago Center
Wed 03:59:28 PM 41.8578 -88.0347 53° Northeast 278 320 7,400 -1,107 Descending Chicago Center
Wed 04:00:09 PM 41.8833 -87.9667 63° Northeast 265 305 7,000 -250 Descending Chicago TRACON
Wed 04:01:04 PM 41.8833 -87.8833 90° East 248 285 7,000 -209 Level Chicago TRACON
Wed 04:02:04 PM 41.8833 -87.8000 90° East 210 242 6,600 -1,050 Descending Chicago TRACON
Wed 04:03:04 PM 41.8833 -87.7167 90° East 206 237 4,900 -1,238 Descending Chicago TRACON
Wed 04:04:10 PM 41.9167 -87.6667 48° Northeast 201 231 4,000 -632 Descending Chicago TRACON
Wed 04:04:58 PM 41.9500 -87.6833 340° North 187 215 3,700 -684 Descending Chicago TRACON
Wed 04:06:04 PM 41.9667 -87.7500 289° West 176 203 2,700 -850 Descending Chicago TRACON
Wed 04:06:58 PM 41.9667 -87.8000 270° West 151 174 2,000 -778 Descending Chicago TRACON

Login

Don't have an account? Register now (free) for customized features, flight alerts, and more!